Terminal Aerodrome Forecast
Issued by NWS Wilmington, NC

Home | Current Version | Previous Version | Text Only | Print | Product List | Glossary On
Versions: 1 2 3 4 5 6 7 8 9 10 11 12 13 14 15 16 17 18 19
000
FTUS42 KILM 302320
TAFFLO
TAF
KFLO 302320Z 3100/3124 14009G17KT P6SM VCSH SCT020 BKN050
      TEMPO 3100/3102 -SHRA BKN020
     FM310600 15010KT 6SM -SHRA SCT020 OVC040
      TEMPO 3108/3109 3SM TSRA OVC015CB
     FM310900 17010KT 3SM TSRA OVC015CB
     FM311400 22014KT P6SM BKN060 PROB30 3116/3121 4SM TSRA BKN025CB
     FM312300 25012KT P6SM SCT150=

USA.gov is the U.S. government's official web portal to all federal, state and local government web resources and services.